Terminal Aerodrome Forecast
Issued by NWS

Home | Current Version | Previous Version | Text Only | Print | Product List | Glossary On
Versions: 1 2 3 4 5 6 7 8 9 10 11 12 13 14 15 16 17 18 19 20 21
000
FTUS43 KDVN 210500
TAFBRL
TAF
KBRL 210537Z 2106/2206 VRB03KT P6SM SKC
     FM211500 14008KT P6SM SCT250
     FM212200 16011KT P6SM SCT025 BKN040
     FM220200 16013KT 6SM -RA SCT015 OVC025=

USA.gov is the U.S. government's official web portal to all federal, state and local government web resources and services.